sensor_id;sensor_type;location;lat;lon;timestamp;P1;durP1;ratioP1;P2;durP2;ratioP2
43152;SDS011;28756;49.064;9.290;2022-09-03T00:01:05;1.35;;;0.50;;
43152;SDS011;28756;49.064;9.290;2022-09-03T00:03:51;0.75;;;0.50;;
43152;SDS011;28756;49.064;9.290;2022-09-03T00:06:30;0.75;;;0.50;;
43152;SDS011;28756;49.064;9.290;2022-09-03T00:09:20;2.42;;;0.50;;
43152;SDS011;28756;49.064;9.290;2022-09-03T00:11:54;1.20;;;0.80;;
43152;SDS011;28756;49.064;9.290;2022-09-03T00:14:42;2.00;;;0.65;;
43152;SDS011;28756;49.064;9.290;2022-09-03T00:17:18;1.13;;;0.52;;
43152;SDS011;28756;49.064;9.290;2022-09-03T00:20:06;0.80;;;0.60;;
43152;SDS011;28756;49.064;9.290;2022-09-03T00:22:53;1.08;;;0.80;;
43152;SDS011;28756;49.064;9.290;2022-09-03T00:25:25;1.20;;;0.70;;
43152;SDS011;28756;49.064;9.290;2022-09-03T00:28:08;1.95;;;0.90;;
43152;SDS011;28756;49.064;9.290;2022-09-03T00:30:45;0.73;;;0.60;;
43152;SDS011;28756;49.064;9.290;2022-09-03T00:33:19;1.88;;;0.65;;
43152;SDS011;28756;49.064;9.290;2022-09-03T00:36:05;0.65;;;0.60;;
43152;SDS011;28756;49.064;9.290;2022-09-03T00:38:43;1.30;;;0.60;;
43152;SDS011;28756;49.064;9.290;2022-09-03T00:43:59;1.00;;;0.70;;
43152;SDS011;28756;49.064;9.290;2022-09-03T00:55:43;1.13;;;0.60;;
43152;SDS011;28756;49.064;9.290;2022-09-03T01:00:59;1.17;;;0.70;;
43152;SDS011;28756;49.064;9.290;2022-09-03T01:06:21;0.52;;;0.52;;
43152;SDS011;28756;49.064;9.290;2022-09-03T01:09:16;1.30;;;0.70;;
43152;SDS011;28756;49.064;9.290;2022-09-03T01:12:16;0.50;;;0.50;;
43152;SDS011;28756;49.064;9.290;2022-09-03T01:15:16;0.60;;;0.57;;
43152;SDS011;28756;49.064;9.290;2022-09-03T01:18:20;0.82;;;0.73;;
43152;SDS011;28756;49.064;9.290;2022-09-03T01:24:45;0.65;;;0.50;;
43152;SDS011;28756;49.064;9.290;2022-09-03T01:30:05;0.68;;;0.50;;
43152;SDS011;28756;49.064;9.290;2022-09-03T01:35:48;0.63;;;0.57;;
43152;SDS011;28756;49.064;9.290;2022-09-03T01:38:34;1.00;;;0.60;;
43152;SDS011;28756;49.064;9.290;2022-09-03T01:47:28;0.70;;;0.50;;
43152;SDS011;28756;49.064;9.290;2022-09-03T01:53:06;0.80;;;0.60;;
43152;SDS011;28756;49.064;9.290;2022-09-03T01:56:09;0.98;;;0.60;;
43152;SDS011;28756;49.064;9.290;2022-09-03T02:05:03;0.75;;;0.60;;
43152;SDS011;28756;49.064;9.290;2022-09-03T02:07:37;1.92;;;0.70;;
43152;SDS011;28756;49.064;9.290;2022-09-03T02:10:16;1.63;;;0.60;;
43152;SDS011;28756;49.064;9.290;2022-09-03T02:12:55;0.90;;;0.70;;
43152;SDS011;28756;49.064;9.290;2022-09-03T02:15:26;0.60;;;0.60;;
43152;SDS011;28756;49.064;9.290;2022-09-03T02:17:53;0.70;;;0.60;;
43152;SDS011;28756;49.064;9.290;2022-09-03T02:20:24;1.00;;;0.57;;
43152;SDS011;28756;49.064;9.290;2022-09-03T02:22:52;1.23;;;0.60;;
43152;SDS011;28756;49.064;9.290;2022-09-03T02:25:20;0.60;;;0.50;;
43152;SDS011;28756;49.064;9.290;2022-09-03T02:27:52;1.25;;;0.60;;
43152;SDS011;28756;49.064;9.290;2022-09-03T02:30:18;0.88;;;0.60;;
43152;SDS011;28756;49.064;9.290;2022-09-03T02:32:44;0.50;;;0.47;;
43152;SDS011;28756;49.064;9.290;2022-09-03T02:35:09;0.60;;;0.50;;
43152;SDS011;28756;49.064;9.290;2022-09-03T02:37:36;1.70;;;0.60;;
43152;SDS011;28756;49.064;9.290;2022-09-03T02:40:02;0.88;;;0.70;;
43152;SDS011;28756;49.064;9.290;2022-09-03T02:42:32;0.65;;;0.60;;
43152;SDS011;28756;49.064;9.290;2022-09-03T02:45:01;1.00;;;0.65;;
43152;SDS011;28756;49.064;9.290;2022-09-03T02:47:53;1.80;;;0.55;;
43152;SDS011;28756;49.064;9.290;2022-09-03T02:50:22;1.02;;;0.60;;
43152;SDS011;28756;49.064;9.290;2022-09-03T02:52:49;0.60;;;0.50;;
43152;SDS011;28756;49.064;9.290;2022-09-03T02:55:15;1.48;;;0.93;;
43152;SDS011;28756;49.064;9.290;2022-09-03T02:57:41;0.88;;;0.65;;
43152;SDS011;28756;49.064;9.290;2022-09-03T03:00:07;1.08;;;0.70;;
43152;SDS011;28756;49.064;9.290;2022-09-03T03:02:34;1.00;;;0.80;;
43152;SDS011;28756;49.064;9.290;2022-09-03T03:05:00;0.88;;;0.63;;
43152;SDS011;28756;49.064;9.290;2022-09-03T03:07:26;1.45;;;0.60;;
43152;SDS011;28756;49.064;9.290;2022-09-03T03:09:56;1.23;;;0.60;;
43152;SDS011;28756;49.064;9.290;2022-09-03T03:12:22;0.80;;;0.60;;
43152;SDS011;28756;49.064;9.290;2022-09-03T03:14:49;0.93;;;0.60;;
43152;SDS011;28756;49.064;9.290;2022-09-03T03:17:14;0.52;;;0.52;;
43152;SDS011;28756;49.064;9.290;2022-09-03T03:19:40;0.73;;;0.60;;
43152;SDS011;28756;49.064;9.290;2022-09-03T03:22:06;2.58;;;0.70;;
43152;SDS011;28756;49.064;9.290;2022-09-03T03:24:31;0.88;;;0.73;;
43152;SDS011;28756;49.064;9.290;2022-09-03T03:26:57;0.60;;;0.60;;
43152;SDS011;28756;49.064;9.290;2022-09-03T03:29:23;0.82;;;0.60;;
43152;SDS011;28756;49.064;9.290;2022-09-03T03:31:49;1.00;;;0.85;;
43152;SDS011;28756;49.064;9.290;2022-09-03T03:34:16;0.80;;;0.60;;
43152;SDS011;28756;49.064;9.290;2022-09-03T03:36:41;0.70;;;0.60;;
43152;SDS011;28756;49.064;9.290;2022-09-03T03:39:07;1.98;;;0.90;;
43152;SDS011;28756;49.064;9.290;2022-09-03T03:41:34;0.93;;;0.80;;
43152;SDS011;28756;49.064;9.290;2022-09-03T03:44:04;0.80;;;0.80;;
43152;SDS011;28756;49.064;9.290;2022-09-03T03:46:32;0.70;;;0.52;;
43152;SDS011;28756;49.064;9.290;2022-09-03T03:49:04;0.70;;;0.70;;
43152;SDS011;28756;49.064;9.290;2022-09-03T03:51:32;0.73;;;0.60;;
43152;SDS011;28756;49.064;9.290;2022-09-03T03:53:58;0.68;;;0.60;;
43152;SDS011;28756;49.064;9.290;2022-09-03T03:56:24;0.82;;;0.60;;
43152;SDS011;28756;49.064;9.290;2022-09-03T03:58:51;0.60;;;0.60;;
43152;SDS011;28756;49.064;9.290;2022-09-03T04:01:19;1.00;;;0.55;;
43152;SDS011;28756;49.064;9.290;2022-09-03T04:03:48;1.00;;;0.80;;
43152;SDS011;28756;49.064;9.290;2022-09-03T04:06:16;1.25;;;0.80;;
43152;SDS011;28756;49.064;9.290;2022-09-03T04:08:44;0.88;;;0.73;;
43152;SDS011;28756;49.064;9.290;2022-09-03T04:11:15;1.40;;;0.82;;
43152;SDS011;28756;49.064;9.290;2022-09-03T04:13:44;1.10;;;0.85;;
43152;SDS011;28756;49.064;9.290;2022-09-03T04:16:12;1.52;;;0.93;;
43152;SDS011;28756;49.064;9.290;2022-09-03T04:18:44;0.88;;;0.80;;
43152;SDS011;28756;49.064;9.290;2022-09-03T04:21:11;0.88;;;0.73;;
43152;SDS011;28756;49.064;9.290;2022-09-03T04:23:39;0.90;;;0.80;;
43152;SDS011;28756;49.064;9.290;2022-09-03T04:26:08;1.02;;;0.60;;
43152;SDS011;28756;49.064;9.290;2022-09-03T04:28:36;1.77;;;0.80;;
43152;SDS011;28756;49.064;9.290;2022-09-03T04:31:03;0.93;;;0.80;;
43152;SDS011;28756;49.064;9.290;2022-09-03T04:33:32;1.27;;;0.60;;
43152;SDS011;28756;49.064;9.290;2022-09-03T04:38:31;1.98;;;0.75;;
43152;SDS011;28756;49.064;9.290;2022-09-03T04:40:58;0.73;;;0.70;;
43152;SDS011;28756;49.064;9.290;2022-09-03T04:43:25;0.93;;;0.80;;
43152;SDS011;28756;49.064;9.290;2022-09-03T04:45:54;2.28;;;0.70;;
43152;SDS011;28756;49.064;9.290;2022-09-03T04:48:22;2.55;;;0.80;;
43152;SDS011;28756;49.064;9.290;2022-09-03T04:50:48;0.68;;;0.63;;
43152;SDS011;28756;49.064;9.290;2022-09-03T04:53:14;0.93;;;0.70;;
43152;SDS011;28756;49.064;9.290;2022-09-03T04:55:39;0.70;;;0.70;;
43152;SDS011;28756;49.064;9.290;2022-09-03T04:58:05;1.00;;;0.80;;
43152;SDS011;28756;49.064;9.290;2022-09-03T05:00:34;0.70;;;0.70;;
43152;SDS011;28756;49.064;9.290;2022-09-03T05:03:01;1.40;;;0.90;;
43152;SDS011;28756;49.064;9.290;2022-09-03T05:05:29;1.35;;;1.10;;
43152;SDS011;28756;49.064;9.290;2022-09-03T05:07:57;0.80;;;0.65;;
43152;SDS011;28756;49.064;9.290;2022-09-03T05:10:27;1.35;;;0.70;;
43152;SDS011;28756;49.064;9.290;2022-09-03T05:12:57;0.80;;;0.70;;
43152;SDS011;28756;49.064;9.290;2022-09-03T05:15:25;0.80;;;0.68;;
43152;SDS011;28756;49.064;9.290;2022-09-03T05:17:57;0.88;;;0.70;;
43152;SDS011;28756;49.064;9.290;2022-09-03T05:20:27;0.80;;;0.70;;
43152;SDS011;28756;49.064;9.290;2022-09-03T05:22:54;0.85;;;0.77;;
43152;SDS011;28756;49.064;9.290;2022-09-03T05:25:30;0.70;;;0.70;;
43152;SDS011;28756;49.064;9.290;2022-09-03T05:27:58;1.10;;;0.77;;
43152;SDS011;28756;49.064;9.290;2022-09-03T05:30:25;1.00;;;0.70;;
43152;SDS011;28756;49.064;9.290;2022-09-03T05:32:51;0.98;;;0.70;;
43152;SDS011;28756;49.064;9.290;2022-09-03T05:35:17;1.52;;;0.80;;
43152;SDS011;28756;49.064;9.290;2022-09-03T05:37:43;4.85;;;1.40;;
43152;SDS011;28756;49.064;9.290;2022-09-03T05:40:09;1.08;;;0.70;;
43152;SDS011;28756;49.064;9.290;2022-09-03T05:42:36;1.05;;;0.80;;
43152;SDS011;28756;49.064;9.290;2022-09-03T05:45:04;1.05;;;0.63;;
43152;SDS011;28756;49.064;9.290;2022-09-03T05:47:35;0.98;;;0.82;;
43152;SDS011;28756;49.064;9.290;2022-09-03T05:50:03;1.73;;;0.90;;
43152;SDS011;28756;49.064;9.290;2022-09-03T05:52:32;1.38;;;1.00;;
43152;SDS011;28756;49.064;9.290;2022-09-03T05:54:59;1.73;;;0.88;;
43152;SDS011;28756;49.064;9.290;2022-09-03T05:57:26;0.90;;;0.70;;
43152;SDS011;28756;49.064;9.290;2022-09-03T05:59:53;0.90;;;0.70;;
43152;SDS011;28756;49.064;9.290;2022-09-03T06:02:19;1.17;;;0.80;;
43152;SDS011;28756;49.064;9.290;2022-09-03T06:04:44;1.05;;;0.90;;
43152;SDS011;28756;49.064;9.290;2022-09-03T06:07:10;0.77;;;0.75;;
43152;SDS011;28756;49.064;9.290;2022-09-03T06:09:36;1.20;;;0.95;;
43152;SDS011;28756;49.064;9.290;2022-09-03T06:12:02;1.33;;;0.82;;
43152;SDS011;28756;49.064;9.290;2022-09-03T06:14:28;0.90;;;0.70;;
43152;SDS011;28756;49.064;9.290;2022-09-03T06:16:54;1.67;;;1.00;;
43152;SDS011;28756;49.064;9.290;2022-09-03T06:19:20;1.80;;;1.10;;
43152;SDS011;28756;49.064;9.290;2022-09-03T06:21:46;2.10;;;1.33;;
43152;SDS011;28756;49.064;9.290;2022-09-03T06:24:16;2.03;;;1.00;;
43152;SDS011;28756;49.064;9.290;2022-09-03T06:26:47;2.08;;;1.00;;
43152;SDS011;28756;49.064;9.290;2022-09-03T06:29:13;3.80;;;1.38;;
43152;SDS011;28756;49.064;9.290;2022-09-03T06:31:39;1.30;;;1.20;;
43152;SDS011;28756;49.064;9.290;2022-09-03T06:34:05;1.83;;;1.20;;
43152;SDS011;28756;49.064;9.290;2022-09-03T06:36:31;1.33;;;1.13;;
43152;SDS011;28756;49.064;9.290;2022-09-03T06:38:57;1.45;;;1.00;;
43152;SDS011;28756;49.064;9.290;2022-09-03T06:41:25;1.48;;;1.10;;
43152;SDS011;28756;49.064;9.290;2022-09-03T06:43:58;1.60;;;0.90;;
43152;SDS011;28756;49.064;9.290;2022-09-03T06:46:36;1.15;;;0.70;;
43152;SDS011;28756;49.064;9.290;2022-09-03T06:49:03;1.20;;;1.05;;
43152;SDS011;28756;49.064;9.290;2022-09-03T06:51:30;1.17;;;1.00;;
43152;SDS011;28756;49.064;9.290;2022-09-03T06:54:01;2.10;;;0.93;;
43152;SDS011;28756;49.064;9.290;2022-09-03T06:56:32;1.35;;;1.10;;
43152;SDS011;28756;49.064;9.290;2022-09-03T06:59:02;1.08;;;0.98;;
43152;SDS011;28756;49.064;9.290;2022-09-03T07:01:37;1.67;;;1.00;;
43152;SDS011;28756;49.064;9.290;2022-09-03T07:04:07;2.67;;;0.98;;
43152;SDS011;28756;49.064;9.290;2022-09-03T07:06:35;1.85;;;1.10;;
43152;SDS011;28756;49.064;9.290;2022-09-03T07:09:06;1.50;;;1.13;;
43152;SDS011;28756;49.064;9.290;2022-09-03T07:11:34;1.15;;;1.05;;
43152;SDS011;28756;49.064;9.290;2022-09-03T07:14:02;1.50;;;1.20;;
43152;SDS011;28756;49.064;9.290;2022-09-03T07:16:31;3.17;;;1.10;;
43152;SDS011;28756;49.064;9.290;2022-09-03T07:19:01;1.50;;;1.20;;
43152;SDS011;28756;49.064;9.290;2022-09-03T07:21:30;2.17;;;1.10;;
43152;SDS011;28756;49.064;9.290;2022-09-03T07:24:00;2.15;;;0.98;;
43152;SDS011;28756;49.064;9.290;2022-09-03T07:26:29;1.25;;;0.98;;
43152;SDS011;28756;49.064;9.290;2022-09-03T07:28:58;1.27;;;1.10;;
43152;SDS011;28756;49.064;9.290;2022-09-03T07:31:28;0.98;;;0.88;;
43152;SDS011;28756;49.064;9.290;2022-09-03T07:34:01;1.50;;;1.20;;
43152;SDS011;28756;49.064;9.290;2022-09-03T07:36:37;3.10;;;1.20;;
43152;SDS011;28756;49.064;9.290;2022-09-03T07:39:10;2.42;;;1.23;;
43152;SDS011;28756;49.064;9.290;2022-09-03T07:41:36;2.17;;;1.10;;
43152;SDS011;28756;49.064;9.290;2022-09-03T07:44:03;1.92;;;1.08;;
43152;SDS011;28756;49.064;9.290;2022-09-03T07:46:30;1.70;;;1.10;;
43152;SDS011;28756;49.064;9.290;2022-09-03T07:48:58;1.42;;;1.17;;
43152;SDS011;28756;49.064;9.290;2022-09-03T07:51:29;1.90;;;1.10;;
43152;SDS011;28756;49.064;9.290;2022-09-03T07:53:58;2.05;;;0.90;;
43152;SDS011;28756;49.064;9.290;2022-09-03T07:56:28;2.30;;;1.17;;
43152;SDS011;28756;49.064;9.290;2022-09-03T07:58:59;2.28;;;1.27;;
43152;SDS011;28756;49.064;9.290;2022-09-03T08:01:26;1.13;;;1.02;;
43152;SDS011;28756;49.064;9.290;2022-09-03T08:03:55;1.55;;;1.20;;
43152;SDS011;28756;49.064;9.290;2022-09-03T08:06:22;1.13;;;1.02;;
43152;SDS011;28756;49.064;9.290;2022-09-03T08:08:54;1.52;;;1.23;;
43152;SDS011;28756;49.064;9.290;2022-09-03T08:11:28;1.90;;;1.30;;
43152;SDS011;28756;49.064;9.290;2022-09-03T08:13:56;2.90;;;1.30;;
43152;SDS011;28756;49.064;9.290;2022-09-03T08:16:26;2.28;;;1.17;;
43152;SDS011;28756;49.064;9.290;2022-09-03T08:18:54;1.50;;;1.23;;
43152;SDS011;28756;49.064;9.290;2022-09-03T08:21:21;1.60;;;1.30;;
43152;SDS011;28756;49.064;9.290;2022-09-03T08:23:48;2.00;;;1.10;;
43152;SDS011;28756;49.064;9.290;2022-09-03T08:26:17;2.83;;;1.30;;
43152;SDS011;28756;49.064;9.290;2022-09-03T08:28:45;2.55;;;1.77;;
43152;SDS011;28756;49.064;9.290;2022-09-03T08:31:12;2.25;;;1.38;;
43152;SDS011;28756;49.064;9.290;2022-09-03T08:33:40;2.47;;;1.30;;
43152;SDS011;28756;49.064;9.290;2022-09-03T08:36:10;3.15;;;1.20;;
43152;SDS011;28756;49.064;9.290;2022-09-03T08:38:40;1.65;;;1.40;;
43152;SDS011;28756;49.064;9.290;2022-09-03T08:41:14;1.65;;;1.30;;
43152;SDS011;28756;49.064;9.290;2022-09-03T08:49:41;2.15;;;1.48;;
43152;SDS011;28756;49.064;9.290;2022-09-03T08:52:38;1.50;;;1.40;;
43152;SDS011;28756;49.064;9.290;2022-09-03T08:55:33;2.70;;;1.60;;
43152;SDS011;28756;49.064;9.290;2022-09-03T08:58:35;3.03;;;1.65;;
43152;SDS011;28756;49.064;9.290;2022-09-03T09:03:40;3.17;;;1.50;;
43152;SDS011;28756;49.064;9.290;2022-09-03T09:06:24;2.38;;;1.40;;
43152;SDS011;28756;49.064;9.290;2022-09-03T09:09:29;1.63;;;1.30;;
43152;SDS011;28756;49.064;9.290;2022-09-03T09:21:06;1.88;;;1.27;;
43152;SDS011;28756;49.064;9.290;2022-09-03T09:23:45;5.30;;;1.55;;
43152;SDS011;28756;49.064;9.290;2022-09-03T09:26:14;1.52;;;1.17;;
43152;SDS011;28756;49.064;9.290;2022-09-03T09:28:44;1.60;;;1.30;;
43152;SDS011;28756;49.064;9.290;2022-09-03T09:31:19;2.65;;;1.25;;
43152;SDS011;28756;49.064;9.290;2022-09-03T09:33:45;1.50;;;1.30;;
43152;SDS011;28756;49.064;9.290;2022-09-03T09:36:13;1.52;;;1.20;;
43152;SDS011;28756;49.064;9.290;2022-09-03T09:38:43;3.03;;;1.40;;
43152;SDS011;28756;49.064;9.290;2022-09-03T09:41:17;3.15;;;1.20;;
43152;SDS011;28756;49.064;9.290;2022-09-03T09:43:58;1.60;;;1.30;;
43152;SDS011;28756;49.064;9.290;2022-09-03T09:46:36;1.70;;;1.27;;
43152;SDS011;28756;49.064;9.290;2022-09-03T09:49:27;2.40;;;1.33;;
43152;SDS011;28756;49.064;9.290;2022-09-03T09:52:00;1.90;;;1.42;;
43152;SDS011;28756;49.064;9.290;2022-09-03T09:54:35;1.50;;;1.40;;
43152;SDS011;28756;49.064;9.290;2022-09-03T09:57:03;2.28;;;1.20;;
43152;SDS011;28756;49.064;9.290;2022-09-03T09:59:32;1.52;;;1.33;;
43152;SDS011;28756;49.064;9.290;2022-09-03T10:02:13;2.35;;;1.13;;
43152;SDS011;28756;49.064;9.290;2022-09-03T10:04:53;3.05;;;1.38;;
43152;SDS011;28756;49.064;9.290;2022-09-03T10:07:30;1.90;;;1.30;;
43152;SDS011;28756;49.064;9.290;2022-09-03T10:10:06;1.30;;;1.20;;
43152;SDS011;28756;49.064;9.290;2022-09-03T10:12:43;2.95;;;1.20;;
43152;SDS011;28756;49.064;9.290;2022-09-03T10:15:37;1.58;;;1.20;;
43152;SDS011;28756;49.064;9.290;2022-09-03T10:18:17;2.45;;;1.30;;
43152;SDS011;28756;49.064;9.290;2022-09-03T10:26:55;2.05;;;1.58;;
43152;SDS011;28756;49.064;9.290;2022-09-03T10:29:22;2.08;;;1.42;;
43152;SDS011;28756;49.064;9.290;2022-09-03T10:53:10;1.42;;;1.30;;
43152;SDS011;28756;49.064;9.290;2022-09-03T11:04:42;1.40;;;1.30;;
43152;SDS011;28756;49.064;9.290;2022-09-03T11:10:11;1.70;;;1.30;;
43152;SDS011;28756;49.064;9.290;2022-09-03T11:12:58;1.70;;;1.40;;
43152;SDS011;28756;49.064;9.290;2022-09-03T11:15:34;1.20;;;1.10;;
43152;SDS011;28756;49.064;9.290;2022-09-03T11:18:19;1.83;;;1.30;;
43152;SDS011;28756;49.064;9.290;2022-09-03T11:20:53;2.08;;;1.35;;
43152;SDS011;28756;49.064;9.290;2022-09-03T11:23:28;1.55;;;1.40;;
43152;SDS011;28756;49.064;9.290;2022-09-03T11:26:07;2.92;;;1.33;;
43152;SDS011;28756;49.064;9.290;2022-09-03T11:28:40;1.52;;;1.38;;
43152;SDS011;28756;49.064;9.290;2022-09-03T11:34:05;3.47;;;1.40;;
43152;SDS011;28756;49.064;9.290;2022-09-03T11:36:39;5.22;;;1.40;;
43152;SDS011;28756;49.064;9.290;2022-09-03T11:41:59;2.60;;;1.20;;
43152;SDS011;28756;49.064;9.290;2022-09-03T11:44:40;2.53;;;1.20;;
43152;SDS011;28756;49.064;9.290;2022-09-03T11:47:16;1.30;;;1.20;;
43152;SDS011;28756;49.064;9.290;2022-09-03T11:50:04;3.33;;;1.20;;
43152;SDS011;28756;49.064;9.290;2022-09-03T11:53:05;1.55;;;1.20;;
43152;SDS011;28756;49.064;9.290;2022-09-03T11:58:23;3.42;;;1.42;;
43152;SDS011;28756;49.064;9.290;2022-09-03T12:00:59;2.97;;;1.27;;
43152;SDS011;28756;49.064;9.290;2022-09-03T12:03:48;1.95;;;1.10;;
43152;SDS011;28756;49.064;9.290;2022-09-03T12:09:03;2.00;;;1.40;;
43152;SDS011;28756;49.064;9.290;2022-09-03T12:15:16;3.45;;;1.20;;
43152;SDS011;28756;49.064;9.290;2022-09-03T12:18:06;1.77;;;1.25;;
43152;SDS011;28756;49.064;9.290;2022-09-03T12:26:12;1.48;;;1.30;;
43152;SDS011;28756;49.064;9.290;2022-09-03T12:28:42;1.40;;;1.30;;
43152;SDS011;28756;49.064;9.290;2022-09-03T12:31:18;1.45;;;1.20;;
43152;SDS011;28756;49.064;9.290;2022-09-03T12:33:55;6.28;;;1.33;;
43152;SDS011;28756;49.064;9.290;2022-09-03T12:36:37;2.35;;;1.30;;
43152;SDS011;28756;49.064;9.290;2022-09-03T12:39:25;1.95;;;1.35;;
43152;SDS011;28756;49.064;9.290;2022-09-03T12:41:54;1.25;;;1.10;;
43152;SDS011;28756;49.064;9.290;2022-09-03T12:47:12;1.55;;;1.00;;
43152;SDS011;28756;49.064;9.290;2022-09-03T12:49:44;1.65;;;1.05;;
43152;SDS011;28756;49.064;9.290;2022-09-03T12:52:20;2.92;;;1.20;;
43152;SDS011;28756;49.064;9.290;2022-09-03T13:00:23;1.90;;;1.00;;
43152;SDS011;28756;49.064;9.290;2022-09-03T13:02:58;1.20;;;1.10;;
43152;SDS011;28756;49.064;9.290;2022-09-03T13:05:57;1.63;;;1.10;;
43152;SDS011;28756;49.064;9.290;2022-09-03T13:08:28;3.10;;;1.25;;
43152;SDS011;28756;49.064;9.290;2022-09-03T13:11:02;1.40;;;1.30;;
43152;SDS011;28756;49.064;9.290;2022-09-03T13:13:30;2.83;;;1.65;;
43152;SDS011;28756;49.064;9.290;2022-09-03T13:16:03;2.50;;;1.60;;
43152;SDS011;28756;49.064;9.290;2022-09-03T13:22:28;2.08;;;1.70;;
43152;SDS011;28756;49.064;9.290;2022-09-03T13:25:12;4.10;;;1.52;;
43152;SDS011;28756;49.064;9.290;2022-09-03T13:31:03;2.17;;;1.60;;
43152;SDS011;28756;49.064;9.290;2022-09-03T13:33:48;1.52;;;1.35;;
43152;SDS011;28756;49.064;9.290;2022-09-03T13:36:23;1.95;;;1.73;;
43152;SDS011;28756;49.064;9.290;2022-09-03T13:39:19;4.97;;;1.75;;
43152;SDS011;28756;49.064;9.290;2022-09-03T13:41:53;1.60;;;1.40;;
43152;SDS011;28756;49.064;9.290;2022-09-03T13:44:54;2.17;;;1.70;;
43152;SDS011;28756;49.064;9.290;2022-09-03T13:47:48;3.78;;;1.60;;
43152;SDS011;28756;49.064;9.290;2022-09-03T13:50:58;2.20;;;1.80;;
43152;SDS011;28756;49.064;9.290;2022-09-03T13:54:02;2.45;;;1.75;;
43152;SDS011;28756;49.064;9.290;2022-09-03T14:00:21;2.00;;;1.83;;
43152;SDS011;28756;49.064;9.290;2022-09-03T14:03:05;1.90;;;1.63;;
43152;SDS011;28756;49.064;9.290;2022-09-03T14:05:59;2.83;;;1.90;;
43152;SDS011;28756;49.064;9.290;2022-09-03T14:08:55;1.50;;;1.40;;
43152;SDS011;28756;49.064;9.290;2022-09-03T14:11:43;3.58;;;2.00;;
43152;SDS011;28756;49.064;9.290;2022-09-03T14:14:28;2.20;;;2.00;;
43152;SDS011;28756;49.064;9.290;2022-09-03T14:20:22;2.78;;;2.20;;
43152;SDS011;28756;49.064;9.290;2022-09-03T14:25:53;1.90;;;1.65;;
43152;SDS011;28756;49.064;9.290;2022-09-03T14:32:05;2.75;;;1.60;;
43152;SDS011;28756;49.064;9.290;2022-09-03T14:34:09;2.17;;;1.40;;
43152;SDS011;28756;49.064;9.290;2022-09-03T14:37:08;1.60;;;1.45;;
43152;SDS011;28756;49.064;9.290;2022-09-03T14:46:08;3.70;;;1.40;;
43152;SDS011;28756;49.064;9.290;2022-09-03T14:49:07;2.15;;;1.60;;
43152;SDS011;28756;49.064;9.290;2022-09-03T14:52:18;1.25;;;1.15;;
43152;SDS011;28756;49.064;9.290;2022-09-03T14:55:01;3.60;;;1.40;;
43152;SDS011;28756;49.064;9.290;2022-09-03T14:58:06;3.25;;;1.35;;
43152;SDS011;28756;49.064;9.290;2022-09-03T15:01:02;3.95;;;1.50;;
43152;SDS011;28756;49.064;9.290;2022-09-03T15:03:48;5.15;;;1.35;;
43152;SDS011;28756;49.064;9.290;2022-09-03T15:06:43;1.83;;;1.40;;
43152;SDS011;28756;49.064;9.290;2022-09-03T15:09:26;2.80;;;1.20;;
43152;SDS011;28756;49.064;9.290;2022-09-03T15:12:22;4.53;;;1.40;;
43152;SDS011;28756;49.064;9.290;2022-09-03T15:15:16;2.25;;;1.48;;
43152;SDS011;28756;49.064;9.290;2022-09-03T15:20:51;2.58;;;1.42;;
43152;SDS011;28756;49.064;9.290;2022-09-03T15:23:22;1.83;;;1.30;;
43152;SDS011;28756;49.064;9.290;2022-09-03T15:26:31;2.95;;;1.20;;
43152;SDS011;28756;49.064;9.290;2022-09-03T15:35:28;1.33;;;1.00;;
43152;SDS011;28756;49.064;9.290;2022-09-03T15:44:12;1.60;;;1.00;;
43152;SDS011;28756;49.064;9.290;2022-09-03T15:46:52;2.15;;;1.15;;
43152;SDS011;28756;49.064;9.290;2022-09-03T15:52:55;4.30;;;1.30;;
43152;SDS011;28756;49.064;9.290;2022-09-03T15:56:01;2.25;;;1.35;;
43152;SDS011;28756;49.064;9.290;2022-09-03T16:02:32;2.40;;;1.20;;
43152;SDS011;28756;49.064;9.290;2022-09-03T16:10:49;5.80;;;1.40;;
43152;SDS011;28756;49.064;9.290;2022-09-03T16:13:38;2.33;;;1.20;;
43152;SDS011;28756;49.064;9.290;2022-09-03T16:16:21;2.10;;;1.45;;
43152;SDS011;28756;49.064;9.290;2022-09-03T16:19:13;1.60;;;1.20;;
43152;SDS011;28756;49.064;9.290;2022-09-03T16:27:33;1.00;;;0.90;;
43152;SDS011;28756;49.064;9.290;2022-09-03T16:30:11;3.17;;;1.30;;
43152;SDS011;28756;49.064;9.290;2022-09-03T16:38:26;1.75;;;1.25;;
43152;SDS011;28756;49.064;9.290;2022-09-03T16:41:07;1.50;;;1.10;;
43152;SDS011;28756;49.064;9.290;2022-09-03T16:44:22;1.75;;;1.00;;
43152;SDS011;28756;49.064;9.290;2022-09-03T16:50:12;3.25;;;1.42;;
43152;SDS011;28756;49.064;9.290;2022-09-03T16:53:04;2.25;;;1.20;;
43152;SDS011;28756;49.064;9.290;2022-09-03T16:58:58;2.78;;;1.58;;
43152;SDS011;28756;49.064;9.290;2022-09-03T17:09:47;1.95;;;1.15;;
43152;SDS011;28756;49.064;9.290;2022-09-03T17:15:56;1.30;;;0.98;;
43152;SDS011;28756;49.064;9.290;2022-09-03T17:18:52;2.65;;;1.00;;
43152;SDS011;28756;49.064;9.290;2022-09-03T17:34:01;1.67;;;1.30;;
43152;SDS011;28756;49.064;9.290;2022-09-03T17:36:57;1.70;;;1.30;;
43152;SDS011;28756;49.064;9.290;2022-09-03T17:45:40;2.88;;;1.30;;
43152;SDS011;28756;49.064;9.290;2022-09-03T17:48:20;1.13;;;1.00;;
43152;SDS011;28756;49.064;9.290;2022-09-03T17:51:04;1.05;;;0.90;;
43152;SDS011;28756;49.064;9.290;2022-09-03T17:53:48;2.00;;;1.30;;
43152;SDS011;28756;49.064;9.290;2022-09-03T17:59:07;1.27;;;0.93;;
43152;SDS011;28756;49.064;9.290;2022-09-03T18:04:53;3.08;;;1.27;;
43152;SDS011;28756;49.064;9.290;2022-09-03T18:10:31;5.13;;;1.23;;
43152;SDS011;28756;49.064;9.290;2022-09-03T18:13:18;1.75;;;1.40;;
43152;SDS011;28756;49.064;9.290;2022-09-03T18:16:06;1.55;;;1.10;;
43152;SDS011;28756;49.064;9.290;2022-09-03T18:18:52;2.08;;;1.30;;
43152;SDS011;28756;49.064;9.290;2022-09-03T18:21:57;1.48;;;1.05;;
43152;SDS011;28756;49.064;9.290;2022-09-03T18:24:51;1.35;;;1.00;;
43152;SDS011;28756;49.064;9.290;2022-09-03T18:27:53;2.50;;;1.10;;
43152;SDS011;28756;49.064;9.290;2022-09-03T18:30:43;1.23;;;0.98;;
43152;SDS011;28756;49.064;9.290;2022-09-03T18:33:28;2.38;;;1.20;;
43152;SDS011;28756;49.064;9.290;2022-09-03T18:36:12;1.25;;;1.02;;
43152;SDS011;28756;49.064;9.290;2022-09-03T18:39:00;1.00;;;0.90;;
43152;SDS011;28756;49.064;9.290;2022-09-03T18:42:11;1.27;;;1.00;;
43152;SDS011;28756;49.064;9.290;2022-09-03T18:45:25;1.30;;;1.10;;
43152;SDS011;28756;49.064;9.290;2022-09-03T18:49:02;2.00;;;1.15;;
43152;SDS011;28756;49.064;9.290;2022-09-03T19:01:27;2.22;;;1.20;;
43152;SDS011;28756;49.064;9.290;2022-09-03T19:07:26;1.83;;;1.60;;
43152;SDS011;28756;49.064;9.290;2022-09-03T19:10:38;1.40;;;1.30;;
43152;SDS011;28756;49.064;9.290;2022-09-03T19:13:35;2.03;;;1.38;;
43152;SDS011;28756;49.064;9.290;2022-09-03T19:22:43;1.60;;;1.40;;
43152;SDS011;28756;49.064;9.290;2022-09-03T19:25:28;1.95;;;1.55;;
43152;SDS011;28756;49.064;9.290;2022-09-03T19:28:18;2.33;;;1.30;;
43152;SDS011;28756;49.064;9.290;2022-09-03T19:41:26;1.55;;;1.15;;
43152;SDS011;28756;49.064;9.290;2022-09-03T19:44:31;1.65;;;1.33;;
43152;SDS011;28756;49.064;9.290;2022-09-03T19:48:00;1.40;;;1.30;;
43152;SDS011;28756;49.064;9.290;2022-09-03T19:51:35;1.98;;;1.40;;
43152;SDS011;28756;49.064;9.290;2022-09-03T19:54:38;2.00;;;1.27;;
43152;SDS011;28756;49.064;9.290;2022-09-03T19:57:23;1.58;;;1.20;;
43152;SDS011;28756;49.064;9.290;2022-09-03T20:00:09;1.77;;;1.25;;
43152;SDS011;28756;49.064;9.290;2022-09-03T20:02:55;1.45;;;1.35;;
43152;SDS011;28756;49.064;9.290;2022-09-03T20:05:40;2.72;;;1.30;;
43152;SDS011;28756;49.064;9.290;2022-09-03T20:08:25;2.15;;;1.40;;
43152;SDS011;28756;49.064;9.290;2022-09-03T20:11:12;1.60;;;1.50;;
43152;SDS011;28756;49.064;9.290;2022-09-03T20:13:45;1.45;;;1.30;;
43152;SDS011;28756;49.064;9.290;2022-09-03T20:16:44;2.65;;;1.48;;
43152;SDS011;28756;49.064;9.290;2022-09-03T20:28:22;1.98;;;1.70;;